sensor_id;sensor_type;location;lat;lon;timestamp;temperature;humidity
43772;HTU21D;59066;54.782;32.024;2023-03-21T00:01:51;5.48;42.89
43772;HTU21D;59066;54.782;32.024;2023-03-21T00:04:19;5.49;42.81
43772;HTU21D;59066;54.782;32.024;2023-03-21T00:06:47;5.47;42.94
43772;HTU21D;59066;54.782;32.024;2023-03-21T00:09:15;5.42;43.00
43772;HTU21D;59066;54.782;32.024;2023-03-21T00:11:42;5.40;43.01
43772;HTU21D;59066;54.782;32.024;2023-03-21T00:14:10;5.41;43.02
43772;HTU21D;59066;54.782;32.024;2023-03-21T00:16:40;5.41;43.10
43772;HTU21D;59066;54.782;32.024;2023-03-21T00:19:08;5.40;42.96
43772;HTU21D;59066;54.782;32.024;2023-03-21T00:21:36;5.41;42.88
43772;HTU21D;59066;54.782;32.024;2023-03-21T00:24:24;5.42;42.87
43772;HTU21D;59066;54.782;32.024;2023-03-21T00:26:52;5.42;43.07
43772;HTU21D;59066;54.782;32.024;2023-03-21T00:29:20;5.42;43.00
43772;HTU21D;59066;54.782;32.024;2023-03-21T00:31:48;5.41;43.13
43772;HTU21D;59066;54.782;32.024;2023-03-21T00:34:15;5.42;43.26
43772;HTU21D;59066;54.782;32.024;2023-03-21T00:36:45;5.39;43.45
43772;HTU21D;59066;54.782;32.024;2023-03-21T00:39:13;5.37;43.44
43772;HTU21D;59066;54.782;32.024;2023-03-21T00:41:40;5.35;43.27
43772;HTU21D;59066;54.782;32.024;2023-03-21T00:44:10;5.30;43.53
43772;HTU21D;59066;54.782;32.024;2023-03-21T00:46:40;5.28;43.48
43772;HTU21D;59066;54.782;32.024;2023-03-21T00:49:22;5.26;43.40
43772;HTU21D;59066;54.782;32.024;2023-03-21T00:51:50;5.26;43.43
43772;HTU21D;59066;54.782;32.024;2023-03-21T00:54:17;5.25;43.43
43772;HTU21D;59066;54.782;32.024;2023-03-21T00:56:45;5.26;43.35
43772;HTU21D;59066;54.782;32.024;2023-03-21T00:59:13;5.24;43.49
43772;HTU21D;59066;54.782;32.024;2023-03-21T01:01:41;5.27;43.43
43772;HTU21D;59066;54.782;32.024;2023-03-21T01:04:09;5.25;43.51
43772;HTU21D;59066;54.782;32.024;2023-03-21T01:06:41;5.26;43.39
43772;HTU21D;59066;54.782;32.024;2023-03-21T01:09:16;5.26;43.36
43772;HTU21D;59066;54.782;32.024;2023-03-21T01:11:44;5.25;43.40
43772;HTU21D;59066;54.782;32.024;2023-03-21T01:14:13;5.23;43.36
43772;HTU21D;59066;54.782;32.024;2023-03-21T01:16:52;5.25;43.55
43772;HTU21D;59066;54.782;32.024;2023-03-21T01:19:23;5.22;43.62
43772;HTU21D;59066;54.782;32.024;2023-03-21T01:22:14;5.21;43.84
43772;HTU21D;59066;54.782;32.024;2023-03-21T01:24:42;5.19;43.78
43772;HTU21D;59066;54.782;32.024;2023-03-21T01:27:20;5.22;43.87
43772;HTU21D;59066;54.782;32.024;2023-03-21T01:29:48;5.19;44.03
43772;HTU21D;59066;54.782;32.024;2023-03-21T01:32:15;5.17;44.19
43772;HTU21D;59066;54.782;32.024;2023-03-21T01:34:43;5.18;44.27
43772;HTU21D;59066;54.782;32.024;2023-03-21T01:37:11;5.16;44.26
43772;HTU21D;59066;54.782;32.024;2023-03-21T01:39:44;5.13;44.42
43772;HTU21D;59066;54.782;32.024;2023-03-21T01:42:13;5.13;44.58
43772;HTU21D;59066;54.782;32.024;2023-03-21T01:45:02;5.12;44.76
43772;HTU21D;59066;54.782;32.024;2023-03-21T01:47:42;5.08;44.85
43772;HTU21D;59066;54.782;32.024;2023-03-21T01:50:22;5.02;45.10
43772;HTU21D;59066;54.782;32.024;2023-03-21T01:53:23;4.97;45.16
43772;HTU21D;59066;54.782;32.024;2023-03-21T01:56:03;4.97;45.51
43772;HTU21D;59066;54.782;32.024;2023-03-21T01:58:55;4.92;45.69
43772;HTU21D;59066;54.782;32.024;2023-03-21T02:02:06;4.88;45.61
43772;HTU21D;59066;54.782;32.024;2023-03-21T02:04:43;4.84;45.80
43772;HTU21D;59066;54.782;32.024;2023-03-21T02:07:26;4.78;45.91
43772;HTU21D;59066;54.782;32.024;2023-03-21T02:10:03;4.76;45.91
43772;HTU21D;59066;54.782;32.024;2023-03-21T02:12:31;4.71;46.26
43772;HTU21D;59066;54.782;32.024;2023-03-21T02:15:00;4.71;46.27
43772;HTU21D;59066;54.782;32.024;2023-03-21T02:29:45;4.53;47.04
43772;HTU21D;59066;54.782;32.024;2023-03-21T02:46:58;4.35;48.64
43772;HTU21D;59066;54.782;32.024;2023-03-21T02:49:48;4.33;48.89
43772;HTU21D;59066;54.782;32.024;2023-03-21T02:52:24;4.33;49.38
43772;HTU21D;59066;54.782;32.024;2023-03-21T02:55:10;4.33;49.10
43772;HTU21D;59066;54.782;32.024;2023-03-21T02:57:50;4.38;48.78
43772;HTU21D;59066;54.782;32.024;2023-03-21T03:00:25;4.45;48.61
43772;HTU21D;59066;54.782;32.024;2023-03-21T03:02:54;4.48;48.86
43772;HTU21D;59066;54.782;32.024;2023-03-21T03:05:39;4.48;48.83
43772;HTU21D;59066;54.782;32.024;2023-03-21T03:08:24;4.45;49.21
43772;HTU21D;59066;54.782;32.024;2023-03-21T03:11:23;4.42;49.34
43772;HTU21D;59066;54.782;32.024;2023-03-21T03:19:16;4.31;50.08
43772;HTU21D;59066;54.782;32.024;2023-03-21T03:21:54;4.27;50.14
43772;HTU21D;59066;54.782;32.024;2023-03-21T03:25:12;4.26;50.34
43772;HTU21D;59066;54.782;32.024;2023-03-21T03:27:28;4.21;50.57
43772;HTU21D;59066;54.782;32.024;2023-03-21T03:30:02;4.18;50.79
43772;HTU21D;59066;54.782;32.024;2023-03-21T03:32:38;4.16;50.92
43772;HTU21D;59066;54.782;32.024;2023-03-21T03:35:14;4.07;51.43
43772;HTU21D;59066;54.782;32.024;2023-03-21T03:37:46;4.07;51.10
43772;HTU21D;59066;54.782;32.024;2023-03-21T03:40:22;4.03;51.62
43772;HTU21D;59066;54.782;32.024;2023-03-21T03:43:07;4.00;51.49
43772;HTU21D;59066;54.782;32.024;2023-03-21T03:45:59;4.16;51.84
43772;HTU21D;59066;54.782;32.024;2023-03-21T03:48:47;4.01;52.11
43772;HTU21D;59066;54.782;32.024;2023-03-21T03:51:25;3.98;52.33
43772;HTU21D;59066;54.782;32.024;2023-03-21T03:54:19;3.94;52.85
43772;HTU21D;59066;54.782;32.024;2023-03-21T03:56:48;3.93;52.86
43772;HTU21D;59066;54.782;32.024;2023-03-21T03:59:16;3.90;53.32
43772;HTU21D;59066;54.782;32.024;2023-03-21T04:02:09;3.92;53.68
43772;HTU21D;59066;54.782;32.024;2023-03-21T04:04:37;3.89;53.89
43772;HTU21D;59066;54.782;32.024;2023-03-21T04:07:05;3.87;54.20
43772;HTU21D;59066;54.782;32.024;2023-03-21T04:09:34;3.86;54.09
43772;HTU21D;59066;54.782;32.024;2023-03-21T04:12:12;3.87;54.23
43772;HTU21D;59066;54.782;32.024;2023-03-21T04:14:49;3.79;54.97
43772;HTU21D;59066;54.782;32.024;2023-03-21T04:17:18;3.79;54.86
43772;HTU21D;59066;54.782;32.024;2023-03-21T04:19:47;3.78;54.65
43772;HTU21D;59066;54.782;32.024;2023-03-21T04:22:23;3.77;54.91
43772;HTU21D;59066;54.782;32.024;2023-03-21T04:24:51;3.74;55.07
43772;HTU21D;59066;54.782;32.024;2023-03-21T04:27:19;3.75;55.01
43772;HTU21D;59066;54.782;32.024;2023-03-21T04:30:08;3.78;55.43
43772;HTU21D;59066;54.782;32.024;2023-03-21T04:32:58;3.83;55.63
43772;HTU21D;59066;54.782;32.024;2023-03-21T04:35:30;3.87;56.38
43772;HTU21D;59066;54.782;32.024;2023-03-21T04:38:00;3.92;56.19
43772;HTU21D;59066;54.782;32.024;2023-03-21T04:40:28;3.95;56.78
43772;HTU21D;59066;54.782;32.024;2023-03-21T04:42:55;4.01;56.64
43772;HTU21D;59066;54.782;32.024;2023-03-21T04:45:23;4.06;56.66
43772;HTU21D;59066;54.782;32.024;2023-03-21T04:47:50;4.17;57.11
43772;HTU21D;59066;54.782;32.024;2023-03-21T04:50:18;4.27;57.14
43772;HTU21D;59066;54.782;32.024;2023-03-21T04:52:45;4.33;57.33
43772;HTU21D;59066;54.782;32.024;2023-03-21T04:55:13;4.41;58.22
43772;HTU21D;59066;54.782;32.024;2023-03-21T04:57:44;4.47;57.60
43772;HTU21D;59066;54.782;32.024;2023-03-21T05:00:12;4.53;58.12
43772;HTU21D;59066;54.782;32.024;2023-03-21T05:02:41;4.59;58.06
43772;HTU21D;59066;54.782;32.024;2023-03-21T05:05:08;4.68;59.03
43772;HTU21D;59066;54.782;32.024;2023-03-21T05:07:41;4.72;58.96
43772;HTU21D;59066;54.782;32.024;2023-03-21T05:10:10;4.79;58.45
43772;HTU21D;59066;54.782;32.024;2023-03-21T05:12:40;4.78;58.59
43772;HTU21D;59066;54.782;32.024;2023-03-21T05:15:08;4.80;58.47
43772;HTU21D;59066;54.782;32.024;2023-03-21T05:17:36;4.74;58.51
43772;HTU21D;59066;54.782;32.024;2023-03-21T05:20:04;4.74;58.38
43772;HTU21D;59066;54.782;32.024;2023-03-21T05:22:34;4.77;58.25
43772;HTU21D;59066;54.782;32.024;2023-03-21T05:25:11;4.78;58.08
43772;HTU21D;59066;54.782;32.024;2023-03-21T05:27:57;4.78;58.16
43772;HTU21D;59066;54.782;32.024;2023-03-21T05:30:30;4.81;58.52
43772;HTU21D;59066;54.782;32.024;2023-03-21T05:32:59;4.81;58.64
43772;HTU21D;59066;54.782;32.024;2023-03-21T05:35:27;4.83;58.64
43772;HTU21D;59066;54.782;32.024;2023-03-21T05:37:57;4.92;58.64
43772;HTU21D;59066;54.782;32.024;2023-03-21T05:40:29;4.97;58.79
43772;HTU21D;59066;54.782;32.024;2023-03-21T05:42:57;5.02;59.01
43772;HTU21D;59066;54.782;32.024;2023-03-21T05:45:25;5.07;59.09
43772;HTU21D;59066;54.782;32.024;2023-03-21T05:47:54;5.13;59.35
43772;HTU21D;59066;54.782;32.024;2023-03-21T05:50:27;5.19;59.28
43772;HTU21D;59066;54.782;32.024;2023-03-21T05:53:10;5.23;59.60
43772;HTU21D;59066;54.782;32.024;2023-03-21T05:55:38;5.36;59.44
43772;HTU21D;59066;54.782;32.024;2023-03-21T05:58:11;5.37;59.35
43772;HTU21D;59066;54.782;32.024;2023-03-21T06:00:44;5.39;59.55
43772;HTU21D;59066;54.782;32.024;2023-03-21T06:03:20;5.39;59.63
43772;HTU21D;59066;54.782;32.024;2023-03-21T06:05:57;5.48;59.75
43772;HTU21D;59066;54.782;32.024;2023-03-21T06:08:31;5.50;59.60
43772;HTU21D;59066;54.782;32.024;2023-03-21T06:10:59;5.55;59.73
43772;HTU21D;59066;54.782;32.024;2023-03-21T06:13:28;5.59;59.90
43772;HTU21D;59066;54.782;32.024;2023-03-21T06:15:57;5.66;60.04
43772;HTU21D;59066;54.782;32.024;2023-03-21T06:18:25;5.72;60.00
43772;HTU21D;59066;54.782;32.024;2023-03-21T06:21:01;5.78;60.57
43772;HTU21D;59066;54.782;32.024;2023-03-21T06:23:30;5.91;60.17
43772;HTU21D;59066;54.782;32.024;2023-03-21T06:25:57;5.96;60.30
43772;HTU21D;59066;54.782;32.024;2023-03-21T06:28:25;6.00;60.33
43772;HTU21D;59066;54.782;32.024;2023-03-21T06:30:53;6.11;60.60
43772;HTU21D;59066;54.782;32.024;2023-03-21T06:33:24;6.20;60.66
43772;HTU21D;59066;54.782;32.024;2023-03-21T06:35:54;6.35;60.55
43772;HTU21D;59066;54.782;32.024;2023-03-21T06:38:22;6.58;60.15
43772;HTU21D;59066;54.782;32.024;2023-03-21T06:40:51;6.55;59.71
43772;HTU21D;59066;54.782;32.024;2023-03-21T06:43:20;6.54;59.58
43772;HTU21D;59066;54.782;32.024;2023-03-21T06:45:48;6.59;59.65
43772;HTU21D;59066;54.782;32.024;2023-03-21T06:48:16;6.51;59.52
43772;HTU21D;59066;54.782;32.024;2023-03-21T06:50:49;6.46;59.79
43772;HTU21D;59066;54.782;32.024;2023-03-21T06:53:20;6.55;59.64
43772;HTU21D;59066;54.782;32.024;2023-03-21T06:56:09;6.58;59.66
43772;HTU21D;59066;54.782;32.024;2023-03-21T06:58:39;6.64;59.93
43772;HTU21D;59066;54.782;32.024;2023-03-21T07:01:13;6.72;60.02
43772;HTU21D;59066;54.782;32.024;2023-03-21T07:03:51;6.87;59.68
43772;HTU21D;59066;54.782;32.024;2023-03-21T07:06:22;6.97;59.59
43772;HTU21D;59066;54.782;32.024;2023-03-21T07:08:54;7.18;59.35
43772;HTU21D;59066;54.782;32.024;2023-03-21T07:11:23;7.30;58.86
43772;HTU21D;59066;54.782;32.024;2023-03-21T07:13:51;7.47;58.66
43772;HTU21D;59066;54.782;32.024;2023-03-21T07:16:19;7.58;58.25
43772;HTU21D;59066;54.782;32.024;2023-03-21T07:18:47;7.62;58.07
43772;HTU21D;59066;54.782;32.024;2023-03-21T07:21:15;7.65;57.81
43772;HTU21D;59066;54.782;32.024;2023-03-21T07:23:43;7.72;57.77
43772;HTU21D;59066;54.782;32.024;2023-03-21T07:26:11;7.85;57.74
43772;HTU21D;59066;54.782;32.024;2023-03-21T07:28:38;7.98;57.92
43772;HTU21D;59066;54.782;32.024;2023-03-21T07:31:06;8.06;57.74
43772;HTU21D;59066;54.782;32.024;2023-03-21T07:33:35;8.20;57.45
43772;HTU21D;59066;54.782;32.024;2023-03-21T07:36:02;8.21;57.28
43772;HTU21D;59066;54.782;32.024;2023-03-21T07:38:30;8.26;57.30
43772;HTU21D;59066;54.782;32.024;2023-03-21T07:40:58;8.49;57.02
43772;HTU21D;59066;54.782;32.024;2023-03-21T07:43:30;8.61;56.62
43772;HTU21D;59066;54.782;32.024;2023-03-21T07:45:58;8.70;56.56
43772;HTU21D;59066;54.782;32.024;2023-03-21T07:48:27;8.79;56.41
43772;HTU21D;59066;54.782;32.024;2023-03-21T07:50:55;9.01;56.01
43772;HTU21D;59066;54.782;32.024;2023-03-21T07:53:22;9.07;55.81
43772;HTU21D;59066;54.782;32.024;2023-03-21T07:55:51;9.00;55.85
43772;HTU21D;59066;54.782;32.024;2023-03-21T07:58:19;9.14;55.93
43772;HTU21D;59066;54.782;32.024;2023-03-21T08:00:46;9.34;55.84
43772;HTU21D;59066;54.782;32.024;2023-03-21T08:03:15;9.45;55.45
43772;HTU21D;59066;54.782;32.024;2023-03-21T08:05:43;9.40;55.01
43772;HTU21D;59066;54.782;32.024;2023-03-21T08:08:11;9.44;55.26
43772;HTU21D;59066;54.782;32.024;2023-03-21T08:10:38;9.42;55.05
43772;HTU21D;59066;54.782;32.024;2023-03-21T08:13:08;9.44;55.23
43772;HTU21D;59066;54.782;32.024;2023-03-21T08:15:35;9.39;54.70
43772;HTU21D;59066;54.782;32.024;2023-03-21T08:18:03;9.35;55.39
43772;HTU21D;59066;54.782;32.024;2023-03-21T08:20:31;9.40;55.04
43772;HTU21D;59066;54.782;32.024;2023-03-21T08:22:59;9.50;54.97
43772;HTU21D;59066;54.782;32.024;2023-03-21T08:25:26;9.50;54.78
43772;HTU21D;59066;54.782;32.024;2023-03-21T08:27:54;9.51;54.64
43772;HTU21D;59066;54.782;32.024;2023-03-21T08:30:23;9.51;54.60
43772;HTU21D;59066;54.782;32.024;2023-03-21T08:32:55;9.60;54.68
43772;HTU21D;59066;54.782;32.024;2023-03-21T08:35:26;9.64;54.49
43772;HTU21D;59066;54.782;32.024;2023-03-21T08:37:54;9.63;54.65
43772;HTU21D;59066;54.782;32.024;2023-03-21T08:40:21;9.71;54.35
43772;HTU21D;59066;54.782;32.024;2023-03-21T08:42:49;9.76;54.53
43772;HTU21D;59066;54.782;32.024;2023-03-21T08:45:16;9.97;54.41
43772;HTU21D;59066;54.782;32.024;2023-03-21T08:47:45;9.97;54.58
43772;HTU21D;59066;54.782;32.024;2023-03-21T08:50:21;10.06;54.52
43772;HTU21D;59066;54.782;32.024;2023-03-21T08:52:49;10.10;54.68
43772;HTU21D;59066;54.782;32.024;2023-03-21T08:55:17;10.19;54.65
43772;HTU21D;59066;54.782;32.024;2023-03-21T08:57:46;10.24;54.46
43772;HTU21D;59066;54.782;32.024;2023-03-21T09:00:15;10.35;54.31
43772;HTU21D;59066;54.782;32.024;2023-03-21T09:02:45;10.23;54.45
43772;HTU21D;59066;54.782;32.024;2023-03-21T09:05:14;10.24;54.90
43772;HTU21D;59066;54.782;32.024;2023-03-21T09:07:43;10.37;54.75
43772;HTU21D;59066;54.782;32.024;2023-03-21T09:10:16;10.12;54.96
43772;HTU21D;59066;54.782;32.024;2023-03-21T09:12:50;10.22;55.30
43772;HTU21D;59066;54.782;32.024;2023-03-21T09:15:18;10.28;55.02
43772;HTU21D;59066;54.782;32.024;2023-03-21T09:17:48;10.33;55.14
43772;HTU21D;59066;54.782;32.024;2023-03-21T09:20:16;10.42;54.89
43772;HTU21D;59066;54.782;32.024;2023-03-21T09:22:48;10.40;55.04
43772;HTU21D;59066;54.782;32.024;2023-03-21T09:25:17;10.40;54.92
43772;HTU21D;59066;54.782;32.024;2023-03-21T09:27:45;10.18;55.57
43772;HTU21D;59066;54.782;32.024;2023-03-21T09:30:15;9.90;56.07
43772;HTU21D;59066;54.782;32.024;2023-03-21T09:32:43;9.66;57.09
43772;HTU21D;59066;54.782;32.024;2023-03-21T09:35:15;9.50;57.19
43772;HTU21D;59066;54.782;32.024;2023-03-21T09:37:45;9.44;57.00
43772;HTU21D;59066;54.782;32.024;2023-03-21T09:40:18;9.35;57.57
43772;HTU21D;59066;54.782;32.024;2023-03-21T09:45:40;8.93;58.48
43772;HTU21D;59066;54.782;32.024;2023-03-21T09:48:16;8.75;59.04
43772;HTU21D;59066;54.782;32.024;2023-03-21T09:50:55;8.72;58.92
43772;HTU21D;59066;54.782;32.024;2023-03-21T09:53:33;8.61;59.06
43772;HTU21D;59066;54.782;32.024;2023-03-21T09:56:02;8.49;59.34
43772;HTU21D;59066;54.782;32.024;2023-03-21T09:58:37;8.39;59.43
43772;HTU21D;59066;54.782;32.024;2023-03-21T10:01:11;8.30;59.91
43772;HTU21D;59066;54.782;32.024;2023-03-21T10:04:05;8.23;60.06
43772;HTU21D;59066;54.782;32.024;2023-03-21T10:06:37;8.13;60.01
43772;HTU21D;59066;54.782;32.024;2023-03-21T10:09:19;7.99;60.34
43772;HTU21D;59066;54.782;32.024;2023-03-21T10:11:55;7.94;60.48
43772;HTU21D;59066;54.782;32.024;2023-03-21T10:14:39;7.86;61.02
43772;HTU21D;59066;54.782;32.024;2023-03-21T10:19:41;7.59;62.63
43772;HTU21D;59066;54.782;32.024;2023-03-21T10:22:12;7.50;64.01
43772;HTU21D;59066;54.782;32.024;2023-03-21T10:24:40;7.53;64.97
43772;HTU21D;59066;54.782;32.024;2023-03-21T10:27:09;7.43;65.45
43772;HTU21D;59066;54.782;32.024;2023-03-21T10:29:42;7.39;66.18
43772;HTU21D;59066;54.782;32.024;2023-03-21T10:32:14;7.46;67.27
43772;HTU21D;59066;54.782;32.024;2023-03-21T10:34:45;7.40;67.12
43772;HTU21D;59066;54.782;32.024;2023-03-21T10:37:14;7.29;67.59
43772;HTU21D;59066;54.782;32.024;2023-03-21T10:39:45;7.31;68.27
43772;HTU21D;59066;54.782;32.024;2023-03-21T10:42:21;7.34;68.91
43772;HTU21D;59066;54.782;32.024;2023-03-21T10:44:52;7.26;69.14
43772;HTU21D;59066;54.782;32.024;2023-03-21T10:47:26;7.24;69.39
43772;HTU21D;59066;54.782;32.024;2023-03-21T10:49:54;7.18;69.74
43772;HTU21D;59066;54.782;32.024;2023-03-21T10:52:34;7.14;70.07
43772;HTU21D;59066;54.782;32.024;2023-03-21T10:55:16;7.19;70.67
43772;HTU21D;59066;54.782;32.024;2023-03-21T10:57:45;7.18;70.84
43772;HTU21D;59066;54.782;32.024;2023-03-21T11:00:20;7.25;71.52
43772;HTU21D;59066;54.782;32.024;2023-03-21T11:02:50;7.39;71.38
43772;HTU21D;59066;54.782;32.024;2023-03-21T11:05:24;7.37;71.53
43772;HTU21D;59066;54.782;32.024;2023-03-21T11:08:02;7.35;71.14
43772;HTU21D;59066;54.782;32.024;2023-03-21T11:10:34;7.23;71.10
43772;HTU21D;59066;54.782;32.024;2023-03-21T11:13:07;7.18;71.58
43772;HTU21D;59066;54.782;32.024;2023-03-21T11:15:49;7.29;71.97
43772;HTU21D;59066;54.782;32.024;2023-03-21T11:18:20;7.31;71.57
43772;HTU21D;59066;54.782;32.024;2023-03-21T11:23:19;7.14;71.95
43772;HTU21D;59066;54.782;32.024;2023-03-21T11:25:50;7.24;71.74
43772;HTU21D;59066;54.782;32.024;2023-03-21T11:28:21;7.37;71.69
43772;HTU21D;59066;54.782;32.024;2023-03-21T11:30:51;7.45;70.77
43772;HTU21D;59066;54.782;32.024;2023-03-21T11:33:22;7.44;70.99
43772;HTU21D;59066;54.782;32.024;2023-03-21T11:36:00;7.47;70.80
43772;HTU21D;59066;54.782;32.024;2023-03-21T11:38:32;7.54;70.44
43772;HTU21D;59066;54.782;32.024;2023-03-21T11:41:03;7.47;70.39
43772;HTU21D;59066;54.782;32.024;2023-03-21T11:43:36;7.40;70.61
43772;HTU21D;59066;54.782;32.024;2023-03-21T11:46:11;7.42;70.64
43772;HTU21D;59066;54.782;32.024;2023-03-21T11:48:41;7.48;70.58
43772;HTU21D;59066;54.782;32.024;2023-03-21T11:56:46;7.41;70.10
43772;HTU21D;59066;54.782;32.024;2023-03-21T12:05:28;7.17;71.45
43772;HTU21D;59066;54.782;32.024;2023-03-21T12:11:24;7.20;70.84
43772;HTU21D;59066;54.782;32.024;2023-03-21T12:14:17;7.14;71.57
43772;HTU21D;59066;54.782;32.024;2023-03-21T12:24:53;7.27;71.90
43772;HTU21D;59066;54.782;32.024;2023-03-21T12:33:01;7.32;71.61
43772;HTU21D;59066;54.782;32.024;2023-03-21T12:35:58;7.38;71.80
43772;HTU21D;59066;54.782;32.024;2023-03-21T12:41:33;7.46;71.53
43772;HTU21D;59066;54.782;32.024;2023-03-21T12:44:09;7.48;71.36
43772;HTU21D;59066;54.782;32.024;2023-03-21T12:46:55;7.44;71.64
43772;HTU21D;59066;54.782;32.024;2023-03-21T12:51:54;7.27;72.13
43772;HTU21D;59066;54.782;32.024;2023-03-21T12:54:47;7.27;72.60
43772;HTU21D;59066;54.782;32.024;2023-03-21T13:00:08;7.34;72.51
43772;HTU21D;59066;54.782;32.024;2023-03-21T13:05:39;7.27;72.70
43772;HTU21D;59066;54.782;32.024;2023-03-21T13:08:29;7.15;73.09
43772;HTU21D;59066;54.782;32.024;2023-03-21T13:10:57;7.15;73.38
43772;HTU21D;59066;54.782;32.024;2023-03-21T13:13:34;7.13;73.29
43772;HTU21D;59066;54.782;32.024;2023-03-21T13:16:19;7.10;73.01
43772;HTU21D;59066;54.782;32.024;2023-03-21T13:18:53;6.95;73.67
43772;HTU21D;59066;54.782;32.024;2023-03-21T13:27:06;6.71;74.73
43772;HTU21D;59066;54.782;32.024;2023-03-21T13:29:45;6.61;75.04
43772;HTU21D;59066;54.782;32.024;2023-03-21T13:37:39;6.42;76.53
43772;HTU21D;59066;54.782;32.024;2023-03-21T13:40:26;6.41;76.28
43772;HTU21D;59066;54.782;32.024;2023-03-21T13:42:58;6.45;76.31
43772;HTU21D;59066;54.782;32.024;2023-03-21T13:45:44;6.40;76.34
43772;HTU21D;59066;54.782;32.024;2023-03-21T13:54:03;6.25;77.38
43772;HTU21D;59066;54.782;32.024;2023-03-21T13:56:47;6.22;77.49
43772;HTU21D;59066;54.782;32.024;2023-03-21T14:04:40;6.23;77.63
43772;HTU21D;59066;54.782;32.024;2023-03-21T14:07:28;6.19;78.20
43772;HTU21D;59066;54.782;32.024;2023-03-21T14:10:02;6.21;78.08
43772;HTU21D;59066;54.782;32.024;2023-03-21T14:12:40;6.26;78.24
43772;HTU21D;59066;54.782;32.024;2023-03-21T14:17:58;6.35;77.89
43772;HTU21D;59066;54.782;32.024;2023-03-21T14:20:30;6.30;78.14
43772;HTU21D;59066;54.782;32.024;2023-03-21T14:22:58;6.31;78.16
43772;HTU21D;59066;54.782;32.024;2023-03-21T14:25:33;6.29;78.16
43772;HTU21D;59066;54.782;32.024;2023-03-21T14:30:50;6.26;78.59
43772;HTU21D;59066;54.782;32.024;2023-03-21T14:33:24;6.26;78.93
43772;HTU21D;59066;54.782;32.024;2023-03-21T14:35:59;6.33;79.09
43772;HTU21D;59066;54.782;32.024;2023-03-21T14:38:33;6.42;78.67
43772;HTU21D;59066;54.782;32.024;2023-03-21T14:41:00;6.33;79.12
43772;HTU21D;59066;54.782;32.024;2023-03-21T14:43:28;6.33;79.12
43772;HTU21D;59066;54.782;32.024;2023-03-21T14:46:00;6.37;79.37
43772;HTU21D;59066;54.782;32.024;2023-03-21T14:48:30;6.42;79.08
43772;HTU21D;59066;54.782;32.024;2023-03-21T14:51:03;6.37;79.39
43772;HTU21D;59066;54.782;32.024;2023-03-21T14:53:37;6.36;79.66
43772;HTU21D;59066;54.782;32.024;2023-03-21T14:56:26;6.46;79.34
43772;HTU21D;59066;54.782;32.024;2023-03-21T14:58:54;6.52;79.11
43772;HTU21D;59066;54.782;32.024;2023-03-21T15:01:31;6.49;79.04
43772;HTU21D;59066;54.782;32.024;2023-03-21T15:04:05;6.37;79.49
43772;HTU21D;59066;54.782;32.024;2023-03-21T15:06:33;6.40;79.00
43772;HTU21D;59066;54.782;32.024;2023-03-21T15:09:04;6.41;79.27
43772;HTU21D;59066;54.782;32.024;2023-03-21T15:11:40;6.41;79.17
43772;HTU21D;59066;54.782;32.024;2023-03-21T15:14:11;6.38;79.16
43772;HTU21D;59066;54.782;32.024;2023-03-21T15:16:40;6.39;79.46
43772;HTU21D;59066;54.782;32.024;2023-03-21T15:19:15;6.42;79.29
43772;HTU21D;59066;54.782;32.024;2023-03-21T15:21:50;6.40;79.25
43772;HTU21D;59066;54.782;32.024;2023-03-21T15:24:32;6.36;79.40
43772;HTU21D;59066;54.782;32.024;2023-03-21T15:27:11;6.30;79.71
43772;HTU21D;59066;54.782;32.024;2023-03-21T15:29:40;6.33;79.73
43772;HTU21D;59066;54.782;32.024;2023-03-21T15:32:20;6.34;79.64
43772;HTU21D;59066;54.782;32.024;2023-03-21T15:34:49;6.25;79.65
43772;HTU21D;59066;54.782;32.024;2023-03-21T15:37:26;6.15;80.34
43772;HTU21D;59066;54.782;32.024;2023-03-21T15:40:09;6.13;80.38
43772;HTU21D;59066;54.782;32.024;2023-03-21T15:42:42;6.19;80.31
43772;HTU21D;59066;54.782;32.024;2023-03-21T15:45:24;6.14;80.30
43772;HTU21D;59066;54.782;32.024;2023-03-21T15:48:12;6.12;80.18
43772;HTU21D;59066;54.782;32.024;2023-03-21T15:51:00;6.11;80.00
43772;HTU21D;59066;54.782;32.024;2023-03-21T15:53:34;6.09;80.36
43772;HTU21D;59066;54.782;32.024;2023-03-21T15:56:04;6.09;80.44
43772;HTU21D;59066;54.782;32.024;2023-03-21T15:58:48;6.08;80.14
43772;HTU21D;59066;54.782;32.024;2023-03-21T16:01:19;6.09;80.38
43772;HTU21D;59066;54.782;32.024;2023-03-21T16:03:55;6.10;80.33
43772;HTU21D;59066;54.782;32.024;2023-03-21T16:06:30;6.14;80.25
43772;HTU21D;59066;54.782;32.024;2023-03-21T16:09:12;6.13;80.35
43772;HTU21D;59066;54.782;32.024;2023-03-21T16:11:50;6.11;80.40
43772;HTU21D;59066;54.782;32.024;2023-03-21T16:14:18;6.13;79.84
43772;HTU21D;59066;54.782;32.024;2023-03-21T16:16:47;6.06;80.46
43772;HTU21D;59066;54.782;32.024;2023-03-21T16:19:15;6.10;80.49
43772;HTU21D;59066;54.782;32.024;2023-03-21T16:21:43;6.08;80.59
43772;HTU21D;59066;54.782;32.024;2023-03-21T16:24:11;6.08;80.44
43772;HTU21D;59066;54.782;32.024;2023-03-21T16:26:47;6.09;80.55
43772;HTU21D;59066;54.782;32.024;2023-03-21T16:29:17;6.09;80.51
43772;HTU21D;59066;54.782;32.024;2023-03-21T16:31:46;6.11;80.46
43772;HTU21D;59066;54.782;32.024;2023-03-21T16:34:14;6.09;80.39
43772;HTU21D;59066;54.782;32.024;2023-03-21T16:36:41;6.09;80.58
43772;HTU21D;59066;54.782;32.024;2023-03-21T16:41:43;6.08;80.89
43772;HTU21D;59066;54.782;32.024;2023-03-21T16:44:11;6.09;80.81
43772;HTU21D;59066;54.782;32.024;2023-03-21T16:46:39;6.10;80.87
43772;HTU21D;59066;54.782;32.024;2023-03-21T16:49:17;6.10;80.92
43772;HTU21D;59066;54.782;32.024;2023-03-21T16:51:45;6.08;80.78
43772;HTU21D;59066;54.782;32.024;2023-03-21T16:54:12;6.07;81.18
43772;HTU21D;59066;54.782;32.024;2023-03-21T16:56:46;6.10;81.14
43772;HTU21D;59066;54.782;32.024;2023-03-21T16:59:15;6.06;81.41
43772;HTU21D;59066;54.782;32.024;2023-03-21T17:01:43;6.09;81.34
43772;HTU21D;59066;54.782;32.024;2023-03-21T17:04:12;6.14;81.55
43772;HTU21D;59066;54.782;32.024;2023-03-21T17:06:50;6.11;81.43
43772;HTU21D;59066;54.782;32.024;2023-03-21T17:09:21;6.17;81.33
43772;HTU21D;59066;54.782;32.024;2023-03-21T17:11:49;6.19;81.36
43772;HTU21D;59066;54.782;32.024;2023-03-21T17:14:16;6.16;81.43
43772;HTU21D;59066;54.782;32.024;2023-03-21T17:16:45;6.15;81.53
43772;HTU21D;59066;54.782;32.024;2023-03-21T17:19:20;6.15;81.44
43772;HTU21D;59066;54.782;32.024;2023-03-21T17:21:50;6.12;81.70
43772;HTU21D;59066;54.782;32.024;2023-03-21T17:24:17;6.10;81.55
43772;HTU21D;59066;54.782;32.024;2023-03-21T17:26:44;6.12;81.87
43772;HTU21D;59066;54.782;32.024;2023-03-21T17:29:13;6.15;81.75
43772;HTU21D;59066;54.782;32.024;2023-03-21T17:31:41;6.16;81.66
43772;HTU21D;59066;54.782;32.024;2023-03-21T17:34:10;6.16;81.40
43772;HTU21D;59066;54.782;32.024;2023-03-21T17:36:39;6.17;81.46
43772;HTU21D;59066;54.782;32.024;2023-03-21T17:39:13;6.19;81.43
43772;HTU21D;59066;54.782;32.024;2023-03-21T17:41:42;6.17;81.50